sensor_id;sensor_type;location;lat;lon;timestamp;temperature;humidity
871;DHT22;422;51.280;7.236;2022-12-08T00:00:49;3.80;99.90
871;DHT22;422;51.280;7.236;2022-12-08T00:03:16;3.80;99.90
871;DHT22;422;51.280;7.236;2022-12-08T00:05:44;3.80;99.90
871;DHT22;422;51.280;7.236;2022-12-08T00:08:30;3.80;99.90
871;DHT22;422;51.280;7.236;2022-12-08T00:11:15;3.80;99.90
871;DHT22;422;51.280;7.236;2022-12-08T00:13:43;3.80;99.90
871;DHT22;422;51.280;7.236;2022-12-08T00:16:10;3.80;99.90
871;DHT22;422;51.280;7.236;2022-12-08T00:18:37;3.70;99.90
871;DHT22;422;51.280;7.236;2022-12-08T00:21:05;3.70;99.90
871;DHT22;422;51.280;7.236;2022-12-08T00:23:33;3.80;99.90
871;DHT22;422;51.280;7.236;2022-12-08T00:26:01;3.70;99.90
871;DHT22;422;51.280;7.236;2022-12-08T00:28:29;3.70;99.90
871;DHT22;422;51.280;7.236;2022-12-08T00:30:57;3.70;99.90
871;DHT22;422;51.280;7.236;2022-12-08T00:33:24;3.70;99.90
871;DHT22;422;51.280;7.236;2022-12-08T00:35:53;3.70;99.90
871;DHT22;422;51.280;7.236;2022-12-08T00:38:20;3.80;99.90
871;DHT22;422;51.280;7.236;2022-12-08T00:40:48;3.70;99.90
871;DHT22;422;51.280;7.236;2022-12-08T00:43:15;3.80;99.90
871;DHT22;422;51.280;7.236;2022-12-08T00:45:42;3.80;99.90
871;DHT22;422;51.280;7.236;2022-12-08T00:48:09;3.70;99.90
871;DHT22;422;51.280;7.236;2022-12-08T00:50:37;3.70;99.90
871;DHT22;422;51.280;7.236;2022-12-08T00:53:04;3.80;99.90
871;DHT22;422;51.280;7.236;2022-12-08T00:55:31;3.80;99.90
871;DHT22;422;51.280;7.236;2022-12-08T00:57:59;3.70;99.90
871;DHT22;422;51.280;7.236;2022-12-08T01:00:26;3.70;99.90
871;DHT22;422;51.280;7.236;2022-12-08T01:02:54;3.70;99.90
871;DHT22;422;51.280;7.236;2022-12-08T01:05:21;3.70;99.90
871;DHT22;422;51.280;7.236;2022-12-08T01:07:48;3.70;99.90
871;DHT22;422;51.280;7.236;2022-12-08T01:10:15;3.70;99.90
871;DHT22;422;51.280;7.236;2022-12-08T01:12:43;3.70;99.90
871;DHT22;422;51.280;7.236;2022-12-08T01:15:11;3.70;99.90
871;DHT22;422;51.280;7.236;2022-12-08T01:17:38;3.70;99.90
871;DHT22;422;51.280;7.236;2022-12-08T01:20:06;3.70;99.90
871;DHT22;422;51.280;7.236;2022-12-08T01:22:34;3.70;99.90
871;DHT22;422;51.280;7.236;2022-12-08T01:25:01;3.60;99.90
871;DHT22;422;51.280;7.236;2022-12-08T01:27:28;3.60;99.90
871;DHT22;422;51.280;7.236;2022-12-08T01:29:55;3.60;99.90
871;DHT22;422;51.280;7.236;2022-12-08T01:32:24;3.60;99.90
871;DHT22;422;51.280;7.236;2022-12-08T01:34:51;3.60;99.90
871;DHT22;422;51.280;7.236;2022-12-08T01:37:19;3.60;99.90
871;DHT22;422;51.280;7.236;2022-12-08T01:39:46;3.60;99.90
871;DHT22;422;51.280;7.236;2022-12-08T01:42:19;3.70;99.90
871;DHT22;422;51.280;7.236;2022-12-08T01:44:55;3.60;99.90
871;DHT22;422;51.280;7.236;2022-12-08T01:47:28;3.60;99.90
871;DHT22;422;51.280;7.236;2022-12-08T01:49:57;3.60;99.90
871;DHT22;422;51.280;7.236;2022-12-08T01:52:28;3.70;99.90
871;DHT22;422;51.280;7.236;2022-12-08T01:55:02;3.60;99.90
871;DHT22;422;51.280;7.236;2022-12-08T01:57:34;3.60;99.90
871;DHT22;422;51.280;7.236;2022-12-08T02:00:06;3.60;99.90
871;DHT22;422;51.280;7.236;2022-12-08T02:02:38;3.60;99.90
871;DHT22;422;51.280;7.236;2022-12-08T02:05:10;3.60;99.90
871;DHT22;422;51.280;7.236;2022-12-08T02:07:38;3.60;99.90
871;DHT22;422;51.280;7.236;2022-12-08T02:10:06;3.60;99.90
871;DHT22;422;51.280;7.236;2022-12-08T02:12:34;3.60;99.90
871;DHT22;422;51.280;7.236;2022-12-08T02:15:01;3.60;99.90
871;DHT22;422;51.280;7.236;2022-12-08T02:17:39;3.60;99.90
871;DHT22;422;51.280;7.236;2022-12-08T02:20:22;3.60;99.90
871;DHT22;422;51.280;7.236;2022-12-08T02:22:59;3.60;99.90
871;DHT22;422;51.280;7.236;2022-12-08T02:25:36;3.60;99.90
871;DHT22;422;51.280;7.236;2022-12-08T02:28:38;3.60;99.90
871;DHT22;422;51.280;7.236;2022-12-08T02:31:16;3.60;99.90
871;DHT22;422;51.280;7.236;2022-12-08T02:34:10;3.50;99.90
871;DHT22;422;51.280;7.236;2022-12-08T02:36:48;3.50;99.90
871;DHT22;422;51.280;7.236;2022-12-08T02:39:27;3.50;99.90
871;DHT22;422;51.280;7.236;2022-12-08T02:42:01;3.50;99.90
871;DHT22;422;51.280;7.236;2022-12-08T02:44:33;3.50;99.90
871;DHT22;422;51.280;7.236;2022-12-08T02:47:06;3.50;99.90
871;DHT22;422;51.280;7.236;2022-12-08T02:49:36;3.60;99.90
871;DHT22;422;51.280;7.236;2022-12-08T02:52:34;3.50;99.90
871;DHT22;422;51.280;7.236;2022-12-08T02:54:58;3.50;99.90
871;DHT22;422;51.280;7.236;2022-12-08T02:57:32;3.50;99.90
871;DHT22;422;51.280;7.236;2022-12-08T03:00:08;3.50;99.90
871;DHT22;422;51.280;7.236;2022-12-08T03:02:55;3.50;99.90
871;DHT22;422;51.280;7.236;2022-12-08T03:05:42;3.40;99.90
871;DHT22;422;51.280;7.236;2022-12-08T03:08:15;3.50;99.90
871;DHT22;422;51.280;7.236;2022-12-08T03:10:47;3.50;99.90
871;DHT22;422;51.280;7.236;2022-12-08T03:13:21;3.50;99.90
871;DHT22;422;51.280;7.236;2022-12-08T03:15:52;3.40;99.90
871;DHT22;422;51.280;7.236;2022-12-08T03:18:24;3.50;99.90
871;DHT22;422;51.280;7.236;2022-12-08T03:20:52;3.50;99.90
871;DHT22;422;51.280;7.236;2022-12-08T03:23:20;3.50;99.90
871;DHT22;422;51.280;7.236;2022-12-08T03:25:55;3.50;99.90
871;DHT22;422;51.280;7.236;2022-12-08T03:28:24;3.50;99.90
871;DHT22;422;51.280;7.236;2022-12-08T03:30:53;3.60;99.90
871;DHT22;422;51.280;7.236;2022-12-08T03:33:23;3.60;99.90
871;DHT22;422;51.280;7.236;2022-12-08T03:35:53;3.60;99.90
871;DHT22;422;51.280;7.236;2022-12-08T03:38:21;3.50;99.90
871;DHT22;422;51.280;7.236;2022-12-08T03:40:49;3.50;99.90
871;DHT22;422;51.280;7.236;2022-12-08T03:43:30;3.50;99.90
871;DHT22;422;51.280;7.236;2022-12-08T03:45:57;3.40;99.90
871;DHT22;422;51.280;7.236;2022-12-08T03:48:24;3.50;99.90
871;DHT22;422;51.280;7.236;2022-12-08T03:50:52;3.40;99.90
871;DHT22;422;51.280;7.236;2022-12-08T03:53:19;3.50;99.90
871;DHT22;422;51.280;7.236;2022-12-08T03:55:46;3.50;99.90
871;DHT22;422;51.280;7.236;2022-12-08T03:58:15;3.50;99.90
871;DHT22;422;51.280;7.236;2022-12-08T04:00:42;3.50;99.90
871;DHT22;422;51.280;7.236;2022-12-08T04:03:09;3.50;99.90
871;DHT22;422;51.280;7.236;2022-12-08T04:05:36;3.50;99.90
871;DHT22;422;51.280;7.236;2022-12-08T04:08:03;3.50;99.90
871;DHT22;422;51.280;7.236;2022-12-08T04:10:31;3.50;99.90
871;DHT22;422;51.280;7.236;2022-12-08T04:12:58;3.50;99.90
871;DHT22;422;51.280;7.236;2022-12-08T04:15:26;3.50;99.90
871;DHT22;422;51.280;7.236;2022-12-08T04:17:53;3.50;99.90
871;DHT22;422;51.280;7.236;2022-12-08T04:20:20;3.50;99.90
871;DHT22;422;51.280;7.236;2022-12-08T04:22:48;3.50;99.90
871;DHT22;422;51.280;7.236;2022-12-08T04:25:15;3.40;99.90
871;DHT22;422;51.280;7.236;2022-12-08T04:27:42;3.40;99.90
871;DHT22;422;51.280;7.236;2022-12-08T04:30:10;3.50;99.90
871;DHT22;422;51.280;7.236;2022-12-08T04:32:38;3.40;99.90
871;DHT22;422;51.280;7.236;2022-12-08T04:35:06;3.40;99.90
871;DHT22;422;51.280;7.236;2022-12-08T04:37:33;3.40;99.90
871;DHT22;422;51.280;7.236;2022-12-08T04:40:00;3.40;99.90
871;DHT22;422;51.280;7.236;2022-12-08T04:42:28;3.40;99.90
871;DHT22;422;51.280;7.236;2022-12-08T04:44:55;3.40;99.90
871;DHT22;422;51.280;7.236;2022-12-08T04:47:25;3.40;99.90
871;DHT22;422;51.280;7.236;2022-12-08T04:49:53;3.40;99.90
871;DHT22;422;51.280;7.236;2022-12-08T04:52:20;3.40;99.90
871;DHT22;422;51.280;7.236;2022-12-08T04:54:47;3.40;99.90
871;DHT22;422;51.280;7.236;2022-12-08T04:57:15;3.40;99.90
871;DHT22;422;51.280;7.236;2022-12-08T04:59:42;3.40;99.90
871;DHT22;422;51.280;7.236;2022-12-08T05:02:09;3.40;99.90
871;DHT22;422;51.280;7.236;2022-12-08T05:04:38;3.40;99.90
871;DHT22;422;51.280;7.236;2022-12-08T05:07:06;3.40;99.90
871;DHT22;422;51.280;7.236;2022-12-08T05:09:33;3.40;99.90
871;DHT22;422;51.280;7.236;2022-12-08T05:12:00;3.40;99.90
871;DHT22;422;51.280;7.236;2022-12-08T05:14:28;3.40;99.90
871;DHT22;422;51.280;7.236;2022-12-08T05:16:55;3.40;99.90
871;DHT22;422;51.280;7.236;2022-12-08T05:19:22;3.40;99.90
871;DHT22;422;51.280;7.236;2022-12-08T05:21:49;3.40;99.90
871;DHT22;422;51.280;7.236;2022-12-08T05:24:18;3.40;99.90
871;DHT22;422;51.280;7.236;2022-12-08T05:26:45;3.40;99.90
871;DHT22;422;51.280;7.236;2022-12-08T05:29:12;3.30;99.90
871;DHT22;422;51.280;7.236;2022-12-08T05:31:39;3.30;99.90
871;DHT22;422;51.280;7.236;2022-12-08T05:34:06;3.30;99.90
871;DHT22;422;51.280;7.236;2022-12-08T05:36:34;3.30;99.90
871;DHT22;422;51.280;7.236;2022-12-08T05:39:01;3.30;99.90
871;DHT22;422;51.280;7.236;2022-12-08T05:41:29;3.30;99.90
871;DHT22;422;51.280;7.236;2022-12-08T05:43:57;3.30;99.90
871;DHT22;422;51.280;7.236;2022-12-08T05:46:24;3.30;99.90
871;DHT22;422;51.280;7.236;2022-12-08T05:48:51;3.30;99.90
871;DHT22;422;51.280;7.236;2022-12-08T05:51:19;3.20;99.90
871;DHT22;422;51.280;7.236;2022-12-08T05:53:48;3.30;99.90
871;DHT22;422;51.280;7.236;2022-12-08T05:56:15;3.30;99.90
871;DHT22;422;51.280;7.236;2022-12-08T05:58:44;3.20;99.90
871;DHT22;422;51.280;7.236;2022-12-08T06:01:18;3.30;99.90
871;DHT22;422;51.280;7.236;2022-12-08T06:03:46;3.20;99.90
871;DHT22;422;51.280;7.236;2022-12-08T06:06:13;3.20;99.90
871;DHT22;422;51.280;7.236;2022-12-08T06:08:40;3.30;99.90
871;DHT22;422;51.280;7.236;2022-12-08T06:11:08;3.30;99.90
871;DHT22;422;51.280;7.236;2022-12-08T06:13:35;3.30;99.90
871;DHT22;422;51.280;7.236;2022-12-08T06:16:05;3.30;99.90
871;DHT22;422;51.280;7.236;2022-12-08T06:18:32;3.40;99.90
871;DHT22;422;51.280;7.236;2022-12-08T06:21:09;3.40;99.90
871;DHT22;422;51.280;7.236;2022-12-08T06:23:37;3.40;99.90
871;DHT22;422;51.280;7.236;2022-12-08T06:26:06;3.50;99.90
871;DHT22;422;51.280;7.236;2022-12-08T06:28:33;3.50;99.90
871;DHT22;422;51.280;7.236;2022-12-08T06:31:07;3.40;99.90
871;DHT22;422;51.280;7.236;2022-12-08T06:33:35;3.50;99.90
871;DHT22;422;51.280;7.236;2022-12-08T06:36:03;3.40;99.90
871;DHT22;422;51.280;7.236;2022-12-08T06:38:30;3.40;99.90
871;DHT22;422;51.280;7.236;2022-12-08T06:40:58;3.60;99.90
871;DHT22;422;51.280;7.236;2022-12-08T06:43:25;3.60;99.90
871;DHT22;422;51.280;7.236;2022-12-08T06:45:53;3.50;99.90
871;DHT22;422;51.280;7.236;2022-12-08T06:48:22;3.50;99.90
871;DHT22;422;51.280;7.236;2022-12-08T06:50:49;3.60;99.90
871;DHT22;422;51.280;7.236;2022-12-08T06:53:16;3.50;99.90
871;DHT22;422;51.280;7.236;2022-12-08T06:55:45;3.40;99.90
871;DHT22;422;51.280;7.236;2022-12-08T06:58:13;3.40;99.90
871;DHT22;422;51.280;7.236;2022-12-08T07:00:41;3.50;99.90
871;DHT22;422;51.280;7.236;2022-12-08T07:03:09;3.40;99.90
871;DHT22;422;51.280;7.236;2022-12-08T07:05:38;3.40;99.90
871;DHT22;422;51.280;7.236;2022-12-08T07:08:07;3.40;99.90
871;DHT22;422;51.280;7.236;2022-12-08T07:10:34;3.40;99.90
871;DHT22;422;51.280;7.236;2022-12-08T07:13:01;3.40;99.90
871;DHT22;422;51.280;7.236;2022-12-08T07:15:29;3.40;99.90
871;DHT22;422;51.280;7.236;2022-12-08T07:17:56;3.40;99.90
871;DHT22;422;51.280;7.236;2022-12-08T07:20:23;3.40;99.90
871;DHT22;422;51.280;7.236;2022-12-08T07:22:52;3.40;99.90
871;DHT22;422;51.280;7.236;2022-12-08T07:25:19;3.40;99.90
871;DHT22;422;51.280;7.236;2022-12-08T07:27:47;3.30;99.90
871;DHT22;422;51.280;7.236;2022-12-08T07:30:16;3.20;99.90
871;DHT22;422;51.280;7.236;2022-12-08T07:32:43;3.20;99.90
871;DHT22;422;51.280;7.236;2022-12-08T07:35:10;3.10;99.90
871;DHT22;422;51.280;7.236;2022-12-08T07:37:37;3.10;99.90
871;DHT22;422;51.280;7.236;2022-12-08T07:40:08;3.20;99.90
871;DHT22;422;51.280;7.236;2022-12-08T07:42:35;3.10;99.90
871;DHT22;422;51.280;7.236;2022-12-08T07:45:02;3.10;99.90
871;DHT22;422;51.280;7.236;2022-12-08T07:47:30;3.00;99.90
871;DHT22;422;51.280;7.236;2022-12-08T07:49:57;3.10;99.90
871;DHT22;422;51.280;7.236;2022-12-08T07:52:24;3.10;99.90
871;DHT22;422;51.280;7.236;2022-12-08T07:54:51;3.10;99.90
871;DHT22;422;51.280;7.236;2022-12-08T07:57:19;3.10;99.90
871;DHT22;422;51.280;7.236;2022-12-08T07:59:47;3.10;99.90
871;DHT22;422;51.280;7.236;2022-12-08T08:02:17;3.10;99.90
871;DHT22;422;51.280;7.236;2022-12-08T08:04:48;3.20;99.90
871;DHT22;422;51.280;7.236;2022-12-08T08:07:16;3.10;99.90
871;DHT22;422;51.280;7.236;2022-12-08T08:09:43;3.10;99.90
871;DHT22;422;51.280;7.236;2022-12-08T08:12:10;3.10;99.90
871;DHT22;422;51.280;7.236;2022-12-08T08:14:39;3.10;99.90
871;DHT22;422;51.280;7.236;2022-12-08T08:17:06;3.10;99.90
871;DHT22;422;51.280;7.236;2022-12-08T08:19:33;3.20;99.90
871;DHT22;422;51.280;7.236;2022-12-08T08:22:00;3.20;99.90
871;DHT22;422;51.280;7.236;2022-12-08T08:24:27;3.10;99.90
871;DHT22;422;51.280;7.236;2022-12-08T08:26:54;3.10;99.90
871;DHT22;422;51.280;7.236;2022-12-08T08:29:21;3.10;99.90
871;DHT22;422;51.280;7.236;2022-12-08T08:31:50;3.10;99.90
871;DHT22;422;51.280;7.236;2022-12-08T08:34:17;3.00;99.90
871;DHT22;422;51.280;7.236;2022-12-08T08:36:44;3.00;99.90
871;DHT22;422;51.280;7.236;2022-12-08T08:39:12;3.00;99.90
871;DHT22;422;51.280;7.236;2022-12-08T08:41:39;3.10;99.90
871;DHT22;422;51.280;7.236;2022-12-08T08:44:06;3.00;99.90
871;DHT22;422;51.280;7.236;2022-12-08T08:46:33;2.90;99.90
871;DHT22;422;51.280;7.236;2022-12-08T08:49:02;2.90;99.90
871;DHT22;422;51.280;7.236;2022-12-08T08:51:29;3.00;99.90
871;DHT22;422;51.280;7.236;2022-12-08T08:53:56;3.00;99.90
871;DHT22;422;51.280;7.236;2022-12-08T08:56:24;3.00;99.90
871;DHT22;422;51.280;7.236;2022-12-08T08:58:52;3.00;99.90
871;DHT22;422;51.280;7.236;2022-12-08T09:01:22;3.00;99.90
871;DHT22;422;51.280;7.236;2022-12-08T09:03:50;3.00;99.90
871;DHT22;422;51.280;7.236;2022-12-08T09:06:18;3.00;99.90
871;DHT22;422;51.280;7.236;2022-12-08T09:08:46;3.00;99.90
871;DHT22;422;51.280;7.236;2022-12-08T09:11:14;2.90;99.90
871;DHT22;422;51.280;7.236;2022-12-08T09:13:43;2.80;99.90
871;DHT22;422;51.280;7.236;2022-12-08T09:16:11;2.80;99.90
871;DHT22;422;51.280;7.236;2022-12-08T09:18:38;2.80;99.90
871;DHT22;422;51.280;7.236;2022-12-08T09:21:06;2.80;99.90
871;DHT22;422;51.280;7.236;2022-12-08T09:23:35;2.80;99.90
871;DHT22;422;51.280;7.236;2022-12-08T09:26:03;2.80;99.90
871;DHT22;422;51.280;7.236;2022-12-08T09:28:30;2.90;99.90
871;DHT22;422;51.280;7.236;2022-12-08T09:30:58;2.80;99.90
871;DHT22;422;51.280;7.236;2022-12-08T09:33:25;2.80;99.90
871;DHT22;422;51.280;7.236;2022-12-08T09:35:52;2.70;99.90
871;DHT22;422;51.280;7.236;2022-12-08T09:38:19;2.80;99.90
871;DHT22;422;51.280;7.236;2022-12-08T09:40:50;2.80;99.90
871;DHT22;422;51.280;7.236;2022-12-08T09:43:27;2.80;99.90
871;DHT22;422;51.280;7.236;2022-12-08T09:46:04;2.70;99.90
871;DHT22;422;51.280;7.236;2022-12-08T09:48:36;2.70;99.90
871;DHT22;422;51.280;7.236;2022-12-08T09:51:04;2.70;99.90
871;DHT22;422;51.280;7.236;2022-12-08T09:53:34;2.60;99.90
871;DHT22;422;51.280;7.236;2022-12-08T09:56:10;2.60;99.90
871;DHT22;422;51.280;7.236;2022-12-08T09:58:44;2.70;99.90
871;DHT22;422;51.280;7.236;2022-12-08T10:01:15;2.60;99.90
871;DHT22;422;51.280;7.236;2022-12-08T10:03:43;2.70;99.90
871;DHT22;422;51.280;7.236;2022-12-08T10:06:18;2.70;99.90
871;DHT22;422;51.280;7.236;2022-12-08T10:08:54;2.70;99.90
871;DHT22;422;51.280;7.236;2022-12-08T10:11:34;2.70;99.90
871;DHT22;422;51.280;7.236;2022-12-08T10:14:13;2.80;99.90
871;DHT22;422;51.280;7.236;2022-12-08T10:16:48;2.80;99.90
871;DHT22;422;51.280;7.236;2022-12-08T10:19:21;2.80;99.90
871;DHT22;422;51.280;7.236;2022-12-08T10:21:49;2.80;99.90
871;DHT22;422;51.280;7.236;2022-12-08T10:24:21;2.90;99.90
871;DHT22;422;51.280;7.236;2022-12-08T10:26:52;2.90;99.90
871;DHT22;422;51.280;7.236;2022-12-08T10:29:20;3.00;99.90
871;DHT22;422;51.280;7.236;2022-12-08T10:31:47;3.00;99.90
871;DHT22;422;51.280;7.236;2022-12-08T10:34:17;3.10;99.90
871;DHT22;422;51.280;7.236;2022-12-08T10:36:46;3.10;99.90
871;DHT22;422;51.280;7.236;2022-12-08T10:39:32;3.10;99.90
871;DHT22;422;51.280;7.236;2022-12-08T10:42:06;3.10;99.90
871;DHT22;422;51.280;7.236;2022-12-08T10:44:39;3.10;99.90
871;DHT22;422;51.280;7.236;2022-12-08T10:47:13;3.10;99.90
871;DHT22;422;51.280;7.236;2022-12-08T10:49:41;3.10;99.90
871;DHT22;422;51.280;7.236;2022-12-08T10:52:13;3.20;99.90
871;DHT22;422;51.280;7.236;2022-12-08T10:54:51;3.20;99.90
871;DHT22;422;51.280;7.236;2022-12-08T10:57:22;3.30;99.90
871;DHT22;422;51.280;7.236;2022-12-08T10:59:53;3.10;99.90
871;DHT22;422;51.280;7.236;2022-12-08T11:02:21;3.10;99.90
871;DHT22;422;51.280;7.236;2022-12-08T11:04:56;3.10;99.90
871;DHT22;422;51.280;7.236;2022-12-08T11:07:25;3.10;99.90
871;DHT22;422;51.280;7.236;2022-12-08T11:09:55;3.10;99.90
871;DHT22;422;51.280;7.236;2022-12-08T11:12:27;3.10;99.90
871;DHT22;422;51.280;7.236;2022-12-08T11:14:59;3.10;99.90
871;DHT22;422;51.280;7.236;2022-12-08T11:17:34;3.00;99.90
871;DHT22;422;51.280;7.236;2022-12-08T11:20:20;3.00;99.90
871;DHT22;422;51.280;7.236;2022-12-08T11:22:51;3.10;99.90
871;DHT22;422;51.280;7.236;2022-12-08T11:25:21;3.10;99.90
871;DHT22;422;51.280;7.236;2022-12-08T11:27:52;3.10;99.90
871;DHT22;422;51.280;7.236;2022-12-08T11:30:22;3.20;99.90
871;DHT22;422;51.280;7.236;2022-12-08T11:32:52;3.30;99.90
871;DHT22;422;51.280;7.236;2022-12-08T11:35:25;3.40;99.90
871;DHT22;422;51.280;7.236;2022-12-08T11:37:56;3.50;99.90
871;DHT22;422;51.280;7.236;2022-12-08T11:40:36;3.60;99.90
871;DHT22;422;51.280;7.236;2022-12-08T11:43:13;3.60;99.90
871;DHT22;422;51.280;7.236;2022-12-08T11:45:42;3.70;99.90
871;DHT22;422;51.280;7.236;2022-12-08T11:48:13;3.70;99.90
871;DHT22;422;51.280;7.236;2022-12-08T11:50:46;3.70;99.90
871;DHT22;422;51.280;7.236;2022-12-08T11:53:25;3.80;99.90
871;DHT22;422;51.280;7.236;2022-12-08T11:55:56;3.80;99.90
871;DHT22;422;51.280;7.236;2022-12-08T11:58:30;3.90;99.90
871;DHT22;422;51.280;7.236;2022-12-08T12:01:00;3.80;99.90
871;DHT22;422;51.280;7.236;2022-12-08T12:03:32;3.80;99.90
871;DHT22;422;51.280;7.236;2022-12-08T12:06:19;3.80;99.90
871;DHT22;422;51.280;7.236;2022-12-08T12:08:57;3.60;99.90
871;DHT22;422;51.280;7.236;2022-12-08T12:11:34;3.70;99.90
871;DHT22;422;51.280;7.236;2022-12-08T12:14:40;3.60;99.90
871;DHT22;422;51.280;7.236;2022-12-08T12:17:26;3.50;99.90
871;DHT22;422;51.280;7.236;2022-12-08T12:19:59;3.40;99.90
871;DHT22;422;51.280;7.236;2022-12-08T12:22:32;3.40;99.90
871;DHT22;422;51.280;7.236;2022-12-08T12:25:01;3.50;99.90
871;DHT22;422;51.280;7.236;2022-12-08T12:27:33;3.60;99.90
871;DHT22;422;51.280;7.236;2022-12-08T12:30:07;3.60;99.90
871;DHT22;422;51.280;7.236;2022-12-08T12:32:45;3.60;99.90
871;DHT22;422;51.280;7.236;2022-12-08T12:35:15;3.60;99.90
871;DHT22;422;51.280;7.236;2022-12-08T12:37:47;3.50;99.90
871;DHT22;422;51.280;7.236;2022-12-08T12:40:17;3.50;99.90
871;DHT22;422;51.280;7.236;2022-12-08T12:42:47;3.40;99.90
871;DHT22;422;51.280;7.236;2022-12-08T12:45:36;3.30;99.90
871;DHT22;422;51.280;7.236;2022-12-08T12:48:23;3.20;99.90
871;DHT22;422;51.280;7.236;2022-12-08T12:50:52;3.20;99.90
871;DHT22;422;51.280;7.236;2022-12-08T12:53:46;3.30;99.90
871;DHT22;422;51.280;7.236;2022-12-08T12:59:35;3.50;99.90
871;DHT22;422;51.280;7.236;2022-12-08T13:02:19;3.50;99.90
871;DHT22;422;51.280;7.236;2022-12-08T13:04:57;3.50;99.90
871;DHT22;422;51.280;7.236;2022-12-08T13:07:27;3.50;99.90
871;DHT22;422;51.280;7.236;2022-12-08T13:09:59;3.50;99.90
871;DHT22;422;51.280;7.236;2022-12-08T13:12:27;3.50;99.90
871;DHT22;422;51.280;7.236;2022-12-08T13:15:02;3.40;99.90
871;DHT22;422;51.280;7.236;2022-12-08T13:17:32;3.40;99.90
871;DHT22;422;51.280;7.236;2022-12-08T13:20:03;3.40;99.90
871;DHT22;422;51.280;7.236;2022-12-08T13:23:00;3.50;99.90
871;DHT22;422;51.280;7.236;2022-12-08T13:25:49;3.50;99.90
871;DHT22;422;51.280;7.236;2022-12-08T13:28:25;3.50;99.90
871;DHT22;422;51.280;7.236;2022-12-08T13:30:55;3.50;99.90
871;DHT22;422;51.280;7.236;2022-12-08T13:33:26;3.50;99.90
871;DHT22;422;51.280;7.236;2022-12-08T13:36:10;3.50;99.90
871;DHT22;422;51.280;7.236;2022-12-08T13:38:38;3.50;99.90
871;DHT22;422;51.280;7.236;2022-12-08T13:41:15;3.50;99.90
871;DHT22;422;51.280;7.236;2022-12-08T13:43:46;3.40;99.90
871;DHT22;422;51.280;7.236;2022-12-08T13:46:16;3.30;99.90
871;DHT22;422;51.280;7.236;2022-12-08T13:48:50;3.30;99.90
871;DHT22;422;51.280;7.236;2022-12-08T13:51:22;3.40;99.90
871;DHT22;422;51.280;7.236;2022-12-08T13:53:57;3.40;99.90
871;DHT22;422;51.280;7.236;2022-12-08T13:56:27;3.40;99.90
871;DHT22;422;51.280;7.236;2022-12-08T13:59:07;3.40;99.90
871;DHT22;422;51.280;7.236;2022-12-08T14:01:42;3.50;99.90
871;DHT22;422;51.280;7.236;2022-12-08T14:04:16;3.50;99.90
871;DHT22;422;51.280;7.236;2022-12-08T14:06:45;3.50;99.90
871;DHT22;422;51.280;7.236;2022-12-08T14:09:16;3.50;99.90
871;DHT22;422;51.280;7.236;2022-12-08T14:11:45;3.40;99.90
871;DHT22;422;51.280;7.236;2022-12-08T14:14:16;3.50;99.90
871;DHT22;422;51.280;7.236;2022-12-08T14:16:49;3.50;99.90
871;DHT22;422;51.280;7.236;2022-12-08T14:19:21;3.50;99.90
871;DHT22;422;51.280;7.236;2022-12-08T14:21:56;3.40;99.90
871;DHT22;422;51.280;7.236;2022-12-08T14:24:24;3.50;99.90
871;DHT22;422;51.280;7.236;2022-12-08T14:26:53;3.50;99.90
871;DHT22;422;51.280;7.236;2022-12-08T14:29:37;3.50;99.90
871;DHT22;422;51.280;7.236;2022-12-08T14:32:17;3.60;99.90
871;DHT22;422;51.280;7.236;2022-12-08T14:34:51;3.60;99.90
871;DHT22;422;51.280;7.236;2022-12-08T14:37:20;3.50;99.90
871;DHT22;422;51.280;7.236;2022-12-08T14:39:48;3.50;99.90
871;DHT22;422;51.280;7.236;2022-12-08T14:42:21;3.60;99.90
871;DHT22;422;51.280;7.236;2022-12-08T14:44:59;3.60;99.90
871;DHT22;422;51.280;7.236;2022-12-08T14:47:31;3.60;99.90
871;DHT22;422;51.280;7.236;2022-12-08T14:50:01;3.60;99.90
871;DHT22;422;51.280;7.236;2022-12-08T14:52:31;3.60;99.90
871;DHT22;422;51.280;7.236;2022-12-08T14:54:58;3.60;99.90
871;DHT22;422;51.280;7.236;2022-12-08T14:57:33;3.50;99.90
871;DHT22;422;51.280;7.236;2022-12-08T15:00:07;3.60;99.90
871;DHT22;422;51.280;7.236;2022-12-08T15:02:40;3.50;99.90
871;DHT22;422;51.280;7.236;2022-12-08T15:05:14;3.40;99.90
871;DHT22;422;51.280;7.236;2022-12-08T15:07:47;3.20;99.90
871;DHT22;422;51.280;7.236;2022-12-08T15:10:21;3.10;99.90
871;DHT22;422;51.280;7.236;2022-12-08T15:13:04;3.10;99.90
871;DHT22;422;51.280;7.236;2022-12-08T15:15:45;3.10;99.90
871;DHT22;422;51.280;7.236;2022-12-08T15:18:15;3.10;99.90
871;DHT22;422;51.280;7.236;2022-12-08T15:20:45;3.00;99.90
871;DHT22;422;51.280;7.236;2022-12-08T15:23:24;3.10;99.90
871;DHT22;422;51.280;7.236;2022-12-08T15:25:53;3.00;99.90
871;DHT22;422;51.280;7.236;2022-12-08T15:28:22;3.10;99.90
871;DHT22;422;51.280;7.236;2022-12-08T15:30:51;3.10;99.90
871;DHT22;422;51.280;7.236;2022-12-08T15:33:19;3.10;99.90
871;DHT22;422;51.280;7.236;2022-12-08T15:35:48;3.00;99.90
871;DHT22;422;51.280;7.236;2022-12-08T15:38:21;3.10;99.90
871;DHT22;422;51.280;7.236;2022-12-08T15:40:49;3.10;99.90
871;DHT22;422;51.280;7.236;2022-12-08T15:43:17;3.10;99.90
871;DHT22;422;51.280;7.236;2022-12-08T15:45:44;3.10;99.90
871;DHT22;422;51.280;7.236;2022-12-08T15:48:22;3.10;99.90
871;DHT22;422;51.280;7.236;2022-12-08T15:50:52;3.10;99.90
871;DHT22;422;51.280;7.236;2022-12-08T15:53:20;3.10;99.90
871;DHT22;422;51.280;7.236;2022-12-08T15:55:47;3.10;99.90
871;DHT22;422;51.280;7.236;2022-12-08T15:58:18;3.10;99.90
871;DHT22;422;51.280;7.236;2022-12-08T16:00:45;3.00;99.90
871;DHT22;422;51.280;7.236;2022-12-08T16:03:21;3.00;99.90
871;DHT22;422;51.280;7.236;2022-12-08T16:05:50;3.00;99.90
871;DHT22;422;51.280;7.236;2022-12-08T16:08:18;3.00;99.90
871;DHT22;422;51.280;7.236;2022-12-08T16:10:45;3.00;99.90
871;DHT22;422;51.280;7.236;2022-12-08T16:13:16;2.90;99.90
871;DHT22;422;51.280;7.236;2022-12-08T16:16:03;3.00;99.90
871;DHT22;422;51.280;7.236;2022-12-08T16:18:35;3.00;99.90
871;DHT22;422;51.280;7.236;2022-12-08T16:21:04;3.00;99.90
871;DHT22;422;51.280;7.236;2022-12-08T16:23:31;3.00;99.90
871;DHT22;422;51.280;7.236;2022-12-08T16:25:59;3.00;99.90
871;DHT22;422;51.280;7.236;2022-12-08T16:28:26;3.00;99.90
871;DHT22;422;51.280;7.236;2022-12-08T16:30:53;3.00;99.90
871;DHT22;422;51.280;7.236;2022-12-08T16:33:20;3.00;99.90
871;DHT22;422;51.280;7.236;2022-12-08T16:35:48;3.00;99.90
871;DHT22;422;51.280;7.236;2022-12-08T16:38:16;3.00;99.90
871;DHT22;422;51.280;7.236;2022-12-08T16:40:44;3.00;99.90
871;DHT22;422;51.280;7.236;2022-12-08T16:43:30;2.90;99.90
871;DHT22;422;51.280;7.236;2022-12-08T16:45:58;2.90;99.90
871;DHT22;422;51.280;7.236;2022-12-08T16:48:25;2.90;99.90
871;DHT22;422;51.280;7.236;2022-12-08T16:50:55;2.90;99.90
871;DHT22;422;51.280;7.236;2022-12-08T16:53:24;2.90;99.90
871;DHT22;422;51.280;7.236;2022-12-08T16:55:51;3.00;99.90
871;DHT22;422;51.280;7.236;2022-12-08T16:58:18;2.90;99.90
871;DHT22;422;51.280;7.236;2022-12-08T17:00:45;3.00;99.90
871;DHT22;422;51.280;7.236;2022-12-08T17:03:16;3.00;99.90
871;DHT22;422;51.280;7.236;2022-12-08T17:05:43;3.00;99.90
871;DHT22;422;51.280;7.236;2022-12-08T17:08:11;3.00;99.90
871;DHT22;422;51.280;7.236;2022-12-08T17:10:43;3.00;99.90
871;DHT22;422;51.280;7.236;2022-12-08T17:13:30;3.00;99.90
871;DHT22;422;51.280;7.236;2022-12-08T17:15:57;3.00;99.90
871;DHT22;422;51.280;7.236;2022-12-08T17:18:26;3.00;99.90